sensor_id;sensor_type;location;lat;lon;timestamp;P1;durP1;ratioP1;P2;durP2;ratioP2
83145;SDS011;73037;51.110;4.706;2024-01-27T00:01:55;11.10;;;4.25;;
83145;SDS011;73037;51.110;4.706;2024-01-27T00:04:21;13.23;;;4.53;;
83145;SDS011;73037;51.110;4.706;2024-01-27T00:06:47;6.38;;;3.72;;
83145;SDS011;73037;51.110;4.706;2024-01-27T00:09:12;13.45;;;4.05;;
83145;SDS011;73037;51.110;4.706;2024-01-27T00:11:38;13.23;;;4.53;;
83145;SDS011;73037;51.110;4.706;2024-01-27T00:14:04;10.50;;;4.50;;
83145;SDS011;73037;51.110;4.706;2024-01-27T00:16:30;12.93;;;4.25;;
83145;SDS011;73037;51.110;4.706;2024-01-27T00:18:55;14.55;;;4.68;;
83145;SDS011;73037;51.110;4.706;2024-01-27T00:21:21;10.70;;;5.03;;
83145;SDS011;73037;51.110;4.706;2024-01-27T00:23:46;9.43;;;4.00;;
83145;SDS011;73037;51.110;4.706;2024-01-27T00:26:12;10.50;;;4.22;;
83145;SDS011;73037;51.110;4.706;2024-01-27T00:28:38;11.23;;;4.60;;
83145;SDS011;73037;51.110;4.706;2024-01-27T00:31:03;7.90;;;3.90;;
83145;SDS011;73037;51.110;4.706;2024-01-27T00:33:29;9.68;;;3.92;;
83145;SDS011;73037;51.110;4.706;2024-01-27T00:35:55;10.45;;;4.13;;
83145;SDS011;73037;51.110;4.706;2024-01-27T00:38:20;10.65;;;4.32;;
83145;SDS011;73037;51.110;4.706;2024-01-27T00:40:46;8.40;;;3.75;;
83145;SDS011;73037;51.110;4.706;2024-01-27T00:43:12;9.77;;;4.38;;
83145;SDS011;73037;51.110;4.706;2024-01-27T00:45:37;9.70;;;3.97;;
83145;SDS011;73037;51.110;4.706;2024-01-27T00:48:04;11.55;;;3.90;;
83145;SDS011;73037;51.110;4.706;2024-01-27T00:50:30;9.13;;;3.92;;
83145;SDS011;73037;51.110;4.706;2024-01-27T00:52:55;8.80;;;3.97;;
83145;SDS011;73037;51.110;4.706;2024-01-27T00:55:21;12.05;;;4.18;;
83145;SDS011;73037;51.110;4.706;2024-01-27T00:57:46;11.75;;;5.13;;
83145;SDS011;73037;51.110;4.706;2024-01-27T01:00:12;11.85;;;5.55;;
83145;SDS011;73037;51.110;4.706;2024-01-27T01:02:38;8.88;;;4.47;;
83145;SDS011;73037;51.110;4.706;2024-01-27T01:05:05;10.82;;;5.53;;
83145;SDS011;73037;51.110;4.706;2024-01-27T01:07:31;10.88;;;4.57;;
83145;SDS011;73037;51.110;4.706;2024-01-27T01:09:58;10.65;;;4.70;;
83145;SDS011;73037;51.110;4.706;2024-01-27T01:12:24;8.57;;;4.25;;
83145;SDS011;73037;51.110;4.706;2024-01-27T01:14:53;12.73;;;4.60;;
83145;SDS011;73037;51.110;4.706;2024-01-27T01:17:19;11.88;;;4.50;;
83145;SDS011;73037;51.110;4.706;2024-01-27T01:19:44;9.60;;;4.53;;
83145;SDS011;73037;51.110;4.706;2024-01-27T01:22:10;9.15;;;4.45;;
83145;SDS011;73037;51.110;4.706;2024-01-27T01:24:36;9.48;;;4.90;;
83145;SDS011;73037;51.110;4.706;2024-01-27T01:27:02;12.65;;;5.80;;
83145;SDS011;73037;51.110;4.706;2024-01-27T01:29:28;12.82;;;5.32;;
83145;SDS011;73037;51.110;4.706;2024-01-27T01:31:54;12.15;;;4.35;;
83145;SDS011;73037;51.110;4.706;2024-01-27T01:34:19;8.02;;;4.28;;
83145;SDS011;73037;51.110;4.706;2024-01-27T01:36:45;8.80;;;4.35;;
83145;SDS011;73037;51.110;4.706;2024-01-27T01:39:11;10.02;;;4.80;;
83145;SDS011;73037;51.110;4.706;2024-01-27T01:41:40;8.15;;;4.55;;
83145;SDS011;73037;51.110;4.706;2024-01-27T01:44:06;13.05;;;4.63;;
83145;SDS011;73037;51.110;4.706;2024-01-27T01:46:32;13.70;;;4.88;;
83145;SDS011;73037;51.110;4.706;2024-01-27T01:48:58;10.98;;;4.13;;
83145;SDS011;73037;51.110;4.706;2024-01-27T01:51:25;10.15;;;4.10;;
83145;SDS011;73037;51.110;4.706;2024-01-27T01:53:51;8.85;;;4.57;;
83145;SDS011;73037;51.110;4.706;2024-01-27T01:56:22;10.60;;;4.13;;
83145;SDS011;73037;51.110;4.706;2024-01-27T01:58:49;11.52;;;4.13;;
83145;SDS011;73037;51.110;4.706;2024-01-27T02:01:15;7.25;;;3.80;;
83145;SDS011;73037;51.110;4.706;2024-01-27T02:06:21;9.07;;;4.40;;
83145;SDS011;73037;51.110;4.706;2024-01-27T02:08:47;9.52;;;4.55;;
83145;SDS011;73037;51.110;4.706;2024-01-27T02:11:13;11.23;;;4.75;;
83145;SDS011;73037;51.110;4.706;2024-01-27T02:13:38;14.48;;;4.57;;
83145;SDS011;73037;51.110;4.706;2024-01-27T02:16:04;12.02;;;4.50;;
83145;SDS011;73037;51.110;4.706;2024-01-27T02:18:30;10.88;;;4.30;;
83145;SDS011;73037;51.110;4.706;2024-01-27T02:20:56;11.25;;;4.50;;
83145;SDS011;73037;51.110;4.706;2024-01-27T02:23:22;10.82;;;4.22;;
83145;SDS011;73037;51.110;4.706;2024-01-27T02:25:47;16.33;;;4.22;;
83145;SDS011;73037;51.110;4.706;2024-01-27T02:28:13;13.20;;;4.50;;
83145;SDS011;73037;51.110;4.706;2024-01-27T02:30:39;8.80;;;3.88;;
83145;SDS011;73037;51.110;4.706;2024-01-27T02:33:05;9.70;;;4.20;;
83145;SDS011;73037;51.110;4.706;2024-01-27T02:35:30;13.85;;;4.50;;
83145;SDS011;73037;51.110;4.706;2024-01-27T02:37:56;9.75;;;4.82;;
83145;SDS011;73037;51.110;4.706;2024-01-27T02:40:22;11.65;;;4.80;;
83145;SDS011;73037;51.110;4.706;2024-01-27T02:42:47;13.00;;;4.85;;
83145;SDS011;73037;51.110;4.706;2024-01-27T02:45:13;10.52;;;4.78;;
83145;SDS011;73037;51.110;4.706;2024-01-27T02:47:39;13.20;;;5.00;;
83145;SDS011;73037;51.110;4.706;2024-01-27T02:50:05;10.43;;;4.72;;
83145;SDS011;73037;51.110;4.706;2024-01-27T02:52:31;9.82;;;4.45;;
83145;SDS011;73037;51.110;4.706;2024-01-27T02:54:57;14.23;;;5.00;;
83145;SDS011;73037;51.110;4.706;2024-01-27T02:57:23;12.38;;;4.40;;
83145;SDS011;73037;51.110;4.706;2024-01-27T02:59:49;14.98;;;5.38;;
83145;SDS011;73037;51.110;4.706;2024-01-27T03:02:14;11.90;;;4.65;;
83145;SDS011;73037;51.110;4.706;2024-01-27T03:04:40;11.55;;;5.13;;
83145;SDS011;73037;51.110;4.706;2024-01-27T03:07:06;9.32;;;5.10;;
83145;SDS011;73037;51.110;4.706;2024-01-27T03:09:32;10.93;;;4.22;;
83145;SDS011;73037;51.110;4.706;2024-01-27T03:11:58;10.55;;;4.28;;
83145;SDS011;73037;51.110;4.706;2024-01-27T03:14:24;9.82;;;4.15;;
83145;SDS011;73037;51.110;4.706;2024-01-27T03:16:50;10.52;;;4.50;;
83145;SDS011;73037;51.110;4.706;2024-01-27T03:19:16;10.35;;;4.40;;
83145;SDS011;73037;51.110;4.706;2024-01-27T03:21:42;12.00;;;4.10;;
83145;SDS011;73037;51.110;4.706;2024-01-27T03:24:07;10.68;;;4.50;;
83145;SDS011;73037;51.110;4.706;2024-01-27T03:26:33;9.38;;;4.60;;
83145;SDS011;73037;51.110;4.706;2024-01-27T03:28:59;9.18;;;4.40;;
83145;SDS011;73037;51.110;4.706;2024-01-27T03:31:31;9.73;;;4.55;;
83145;SDS011;73037;51.110;4.706;2024-01-27T03:33:58;10.65;;;4.53;;
83145;SDS011;73037;51.110;4.706;2024-01-27T03:36:24;12.48;;;5.30;;
83145;SDS011;73037;51.110;4.706;2024-01-27T03:38:50;8.55;;;4.20;;
83145;SDS011;73037;51.110;4.706;2024-01-27T03:41:15;10.60;;;4.78;;
83145;SDS011;73037;51.110;4.706;2024-01-27T03:43:41;10.63;;;4.90;;
83145;SDS011;73037;51.110;4.706;2024-01-27T03:46:06;11.38;;;4.20;;
83145;SDS011;73037;51.110;4.706;2024-01-27T03:48:32;12.77;;;4.07;;
83145;SDS011;73037;51.110;4.706;2024-01-27T03:51:00;9.68;;;4.80;;
83145;SDS011;73037;51.110;4.706;2024-01-27T03:53:26;9.68;;;4.53;;
83145;SDS011;73037;51.110;4.706;2024-01-27T03:55:51;9.98;;;4.38;;
83145;SDS011;73037;51.110;4.706;2024-01-27T03:58:17;13.65;;;5.15;;
83145;SDS011;73037;51.110;4.706;2024-01-27T04:00:43;13.02;;;4.80;;
83145;SDS011;73037;51.110;4.706;2024-01-27T04:03:09;11.85;;;5.45;;
83145;SDS011;73037;51.110;4.706;2024-01-27T04:05:34;14.52;;;4.68;;
83145;SDS011;73037;51.110;4.706;2024-01-27T04:08:01;11.80;;;4.60;;
83145;SDS011;73037;51.110;4.706;2024-01-27T04:10:26;11.00;;;4.85;;
83145;SDS011;73037;51.110;4.706;2024-01-27T04:12:52;8.77;;;4.45;;
83145;SDS011;73037;51.110;4.706;2024-01-27T04:15:18;8.95;;;4.95;;
83145;SDS011;73037;51.110;4.706;2024-01-27T04:17:43;10.20;;;4.72;;
83145;SDS011;73037;51.110;4.706;2024-01-27T04:20:09;17.50;;;4.95;;
83145;SDS011;73037;51.110;4.706;2024-01-27T04:22:35;11.50;;;5.05;;
83145;SDS011;73037;51.110;4.706;2024-01-27T04:25:01;10.60;;;4.82;;
83145;SDS011;73037;51.110;4.706;2024-01-27T04:27:27;12.52;;;4.82;;
83145;SDS011;73037;51.110;4.706;2024-01-27T04:29:53;9.73;;;4.35;;
83145;SDS011;73037;51.110;4.706;2024-01-27T04:32:19;9.25;;;4.60;;
83145;SDS011;73037;51.110;4.706;2024-01-27T04:34:46;8.60;;;4.45;;
83145;SDS011;73037;51.110;4.706;2024-01-27T04:37:12;12.50;;;4.90;;
83145;SDS011;73037;51.110;4.706;2024-01-27T04:39:38;9.40;;;4.90;;
83145;SDS011;73037;51.110;4.706;2024-01-27T04:42:03;8.73;;;4.50;;
83145;SDS011;73037;51.110;4.706;2024-01-27T04:46:57;9.63;;;4.40;;
83145;SDS011;73037;51.110;4.706;2024-01-27T04:49:22;9.45;;;4.00;;
83145;SDS011;73037;51.110;4.706;2024-01-27T04:51:48;12.20;;;5.18;;
83145;SDS011;73037;51.110;4.706;2024-01-27T04:54:14;9.77;;;4.22;;
83145;SDS011;73037;51.110;4.706;2024-01-27T04:56:39;12.55;;;4.90;;
83145;SDS011;73037;51.110;4.706;2024-01-27T04:59:05;12.43;;;4.90;;
83145;SDS011;73037;51.110;4.706;2024-01-27T05:01:31;9.98;;;4.60;;
83145;SDS011;73037;51.110;4.706;2024-01-27T05:03:57;10.55;;;4.50;;
83145;SDS011;73037;51.110;4.706;2024-01-27T05:06:23;9.10;;;4.75;;
83145;SDS011;73037;51.110;4.706;2024-01-27T05:08:48;10.35;;;4.20;;
83145;SDS011;73037;51.110;4.706;2024-01-27T05:11:15;12.35;;;4.82;;
83145;SDS011;73037;51.110;4.706;2024-01-27T05:13:49;9.88;;;4.43;;
83145;SDS011;73037;51.110;4.706;2024-01-27T05:16:15;9.73;;;4.45;;
83145;SDS011;73037;51.110;4.706;2024-01-27T05:18:41;10.70;;;4.45;;
83145;SDS011;73037;51.110;4.706;2024-01-27T05:21:07;11.55;;;5.05;;
83145;SDS011;73037;51.110;4.706;2024-01-27T05:23:32;10.38;;;4.75;;
83145;SDS011;73037;51.110;4.706;2024-01-27T05:25:58;10.63;;;4.75;;
83145;SDS011;73037;51.110;4.706;2024-01-27T05:28:24;10.55;;;4.70;;
83145;SDS011;73037;51.110;4.706;2024-01-27T05:30:49;9.05;;;4.88;;
83145;SDS011;73037;51.110;4.706;2024-01-27T05:33:15;9.07;;;4.93;;
83145;SDS011;73037;51.110;4.706;2024-01-27T05:35:41;11.05;;;4.68;;
83145;SDS011;73037;51.110;4.706;2024-01-27T05:38:07;10.25;;;5.38;;
83145;SDS011;73037;51.110;4.706;2024-01-27T05:40:33;16.77;;;5.63;;
83145;SDS011;73037;51.110;4.706;2024-01-27T05:42:58;11.30;;;5.35;;
83145;SDS011;73037;51.110;4.706;2024-01-27T05:45:24;9.50;;;5.60;;
83145;SDS011;73037;51.110;4.706;2024-01-27T05:47:51;11.10;;;5.28;;
83145;SDS011;73037;51.110;4.706;2024-01-27T05:50:17;12.73;;;5.15;;
83145;SDS011;73037;51.110;4.706;2024-01-27T05:52:43;9.75;;;4.30;;
83145;SDS011;73037;51.110;4.706;2024-01-27T05:55:08;13.68;;;5.15;;
83145;SDS011;73037;51.110;4.706;2024-01-27T05:57:36;12.57;;;4.72;;
83145;SDS011;73037;51.110;4.706;2024-01-27T06:00:02;13.43;;;5.55;;
83145;SDS011;73037;51.110;4.706;2024-01-27T06:02:28;11.75;;;5.00;;
83145;SDS011;73037;51.110;4.706;2024-01-27T06:04:54;10.98;;;5.05;;
83145;SDS011;73037;51.110;4.706;2024-01-27T06:07:20;12.27;;;4.90;;
83145;SDS011;73037;51.110;4.706;2024-01-27T06:09:45;14.50;;;5.70;;
83145;SDS011;73037;51.110;4.706;2024-01-27T06:12:11;12.73;;;5.18;;
83145;SDS011;73037;51.110;4.706;2024-01-27T06:14:36;11.23;;;5.00;;
83145;SDS011;73037;51.110;4.706;2024-01-27T06:17:04;11.40;;;5.50;;
83145;SDS011;73037;51.110;4.706;2024-01-27T06:19:30;11.82;;;5.10;;
83145;SDS011;73037;51.110;4.706;2024-01-27T06:21:56;12.05;;;5.20;;
83145;SDS011;73037;51.110;4.706;2024-01-27T06:24:22;9.98;;;5.13;;
83145;SDS011;73037;51.110;4.706;2024-01-27T06:26:47;12.48;;;5.38;;
83145;SDS011;73037;51.110;4.706;2024-01-27T06:29:13;11.32;;;5.50;;
83145;SDS011;73037;51.110;4.706;2024-01-27T06:31:39;16.75;;;5.88;;
83145;SDS011;73037;51.110;4.706;2024-01-27T06:34:05;11.23;;;5.22;;
83145;SDS011;73037;51.110;4.706;2024-01-27T06:36:31;12.27;;;5.25;;
83145;SDS011;73037;51.110;4.706;2024-01-27T06:38:57;12.38;;;6.03;;
83145;SDS011;73037;51.110;4.706;2024-01-27T06:41:23;11.75;;;5.82;;
83145;SDS011;73037;51.110;4.706;2024-01-27T06:43:48;17.88;;;5.30;;
83145;SDS011;73037;51.110;4.706;2024-01-27T06:46:14;12.48;;;4.57;;
83145;SDS011;73037;51.110;4.706;2024-01-27T06:48:40;11.55;;;5.38;;
83145;SDS011;73037;51.110;4.706;2024-01-27T06:51:05;13.50;;;6.07;;
83145;SDS011;73037;51.110;4.706;2024-01-27T06:53:31;11.13;;;5.30;;
83145;SDS011;73037;51.110;4.706;2024-01-27T06:55:57;12.75;;;5.35;;
83145;SDS011;73037;51.110;4.706;2024-01-27T06:58:22;13.40;;;5.40;;
83145;SDS011;73037;51.110;4.706;2024-01-27T07:00:48;10.57;;;5.60;;
83145;SDS011;73037;51.110;4.706;2024-01-27T07:03:14;10.30;;;5.40;;
83145;SDS011;73037;51.110;4.706;2024-01-27T07:05:39;13.63;;;5.57;;
83145;SDS011;73037;51.110;4.706;2024-01-27T07:08:09;14.05;;;5.45;;
83145;SDS011;73037;51.110;4.706;2024-01-27T07:10:35;15.20;;;5.88;;
83145;SDS011;73037;51.110;4.706;2024-01-27T07:13:01;15.95;;;5.40;;
83145;SDS011;73037;51.110;4.706;2024-01-27T07:15:27;16.60;;;5.55;;
83145;SDS011;73037;51.110;4.706;2024-01-27T07:17:53;12.98;;;5.43;;
83145;SDS011;73037;51.110;4.706;2024-01-27T07:20:19;12.43;;;5.45;;
83145;SDS011;73037;51.110;4.706;2024-01-27T07:22:46;13.80;;;5.45;;
83145;SDS011;73037;51.110;4.706;2024-01-27T07:25:12;14.98;;;5.57;;
83145;SDS011;73037;51.110;4.706;2024-01-27T07:27:38;16.85;;;5.93;;
83145;SDS011;73037;51.110;4.706;2024-01-27T07:30:04;14.57;;;5.53;;
83145;SDS011;73037;51.110;4.706;2024-01-27T07:32:31;13.25;;;5.65;;
83145;SDS011;73037;51.110;4.706;2024-01-27T07:34:57;17.13;;;6.05;;
83145;SDS011;73037;51.110;4.706;2024-01-27T07:37:23;12.23;;;5.25;;
83145;SDS011;73037;51.110;4.706;2024-01-27T07:39:48;14.18;;;5.25;;
83145;SDS011;73037;51.110;4.706;2024-01-27T07:42:14;11.70;;;5.55;;
83145;SDS011;73037;51.110;4.706;2024-01-27T07:44:40;12.68;;;5.68;;
83145;SDS011;73037;51.110;4.706;2024-01-27T07:47:07;14.02;;;5.43;;
83145;SDS011;73037;51.110;4.706;2024-01-27T07:49:34;12.70;;;5.55;;
83145;SDS011;73037;51.110;4.706;2024-01-27T07:51:59;16.25;;;5.28;;
83145;SDS011;73037;51.110;4.706;2024-01-27T07:54:25;13.35;;;5.15;;
83145;SDS011;73037;51.110;4.706;2024-01-27T07:56:51;12.23;;;5.25;;
83145;SDS011;73037;51.110;4.706;2024-01-27T07:59:17;13.98;;;5.05;;
83145;SDS011;73037;51.110;4.706;2024-01-27T08:01:43;12.40;;;5.18;;
83145;SDS011;73037;51.110;4.706;2024-01-27T08:04:09;14.00;;;4.93;;
83145;SDS011;73037;51.110;4.706;2024-01-27T08:06:45;15.77;;;5.25;;
83145;SDS011;73037;51.110;4.706;2024-01-27T08:09:12;10.75;;;5.10;;
83145;SDS011;73037;51.110;4.706;2024-01-27T08:11:37;14.52;;;5.43;;
83145;SDS011;73037;51.110;4.706;2024-01-27T08:14:03;15.10;;;5.97;;
83145;SDS011;73037;51.110;4.706;2024-01-27T08:16:29;15.68;;;5.53;;
83145;SDS011;73037;51.110;4.706;2024-01-27T08:18:54;12.20;;;5.18;;
83145;SDS011;73037;51.110;4.706;2024-01-27T08:21:20;14.93;;;5.15;;
83145;SDS011;73037;51.110;4.706;2024-01-27T08:23:46;13.88;;;5.53;;
83145;SDS011;73037;51.110;4.706;2024-01-27T08:26:12;12.45;;;5.05;;
83145;SDS011;73037;51.110;4.706;2024-01-27T08:28:38;16.48;;;5.38;;
83145;SDS011;73037;51.110;4.706;2024-01-27T08:31:04;12.80;;;5.85;;
83145;SDS011;73037;51.110;4.706;2024-01-27T08:33:30;13.48;;;5.65;;
83145;SDS011;73037;51.110;4.706;2024-01-27T08:35:56;13.73;;;5.95;;
83145;SDS011;73037;51.110;4.706;2024-01-27T08:38:21;12.20;;;5.28;;
83145;SDS011;73037;51.110;4.706;2024-01-27T08:40:47;18.33;;;5.68;;
83145;SDS011;73037;51.110;4.706;2024-01-27T08:43:13;12.43;;;5.70;;
83145;SDS011;73037;51.110;4.706;2024-01-27T08:45:38;14.13;;;5.72;;
83145;SDS011;73037;51.110;4.706;2024-01-27T08:48:05;17.13;;;5.38;;
83145;SDS011;73037;51.110;4.706;2024-01-27T08:50:31;13.63;;;5.70;;
83145;SDS011;73037;51.110;4.706;2024-01-27T08:52:57;14.80;;;5.63;;
83145;SDS011;73037;51.110;4.706;2024-01-27T08:55:23;11.75;;;5.20;;
83145;SDS011;73037;51.110;4.706;2024-01-27T08:57:49;15.52;;;5.93;;
83145;SDS011;73037;51.110;4.706;2024-01-27T09:00:15;16.08;;;6.07;;
83145;SDS011;73037;51.110;4.706;2024-01-27T09:02:42;15.27;;;5.70;;
83145;SDS011;73037;51.110;4.706;2024-01-27T09:05:08;14.10;;;5.78;;
83145;SDS011;73037;51.110;4.706;2024-01-27T09:07:34;11.38;;;5.40;;
83145;SDS011;73037;51.110;4.706;2024-01-27T09:10:00;11.27;;;5.20;;
83145;SDS011;73037;51.110;4.706;2024-01-27T09:12:26;17.20;;;5.43;;
83145;SDS011;73037;51.110;4.706;2024-01-27T09:14:52;12.48;;;5.72;;
83145;SDS011;73037;51.110;4.706;2024-01-27T09:17:19;11.30;;;5.45;;
83145;SDS011;73037;51.110;4.706;2024-01-27T09:19:45;13.02;;;5.30;;
83145;SDS011;73037;51.110;4.706;2024-01-27T09:22:11;18.10;;;5.75;;
83145;SDS011;73037;51.110;4.706;2024-01-27T09:24:36;16.75;;;6.35;;
83145;SDS011;73037;51.110;4.706;2024-01-27T09:27:02;13.27;;;5.88;;
83145;SDS011;73037;51.110;4.706;2024-01-27T09:29:29;12.00;;;5.65;;
83145;SDS011;73037;51.110;4.706;2024-01-27T09:31:54;14.80;;;5.68;;
83145;SDS011;73037;51.110;4.706;2024-01-27T09:34:20;14.25;;;5.55;;
83145;SDS011;73037;51.110;4.706;2024-01-27T09:36:46;13.23;;;5.68;;
83145;SDS011;73037;51.110;4.706;2024-01-27T09:39:11;14.20;;;5.50;;
83145;SDS011;73037;51.110;4.706;2024-01-27T09:41:37;17.52;;;6.35;;
83145;SDS011;73037;51.110;4.706;2024-01-27T09:44:03;17.88;;;5.93;;
83145;SDS011;73037;51.110;4.706;2024-01-27T09:46:30;16.42;;;6.03;;
83145;SDS011;73037;51.110;4.706;2024-01-27T09:48:57;15.95;;;5.93;;
83145;SDS011;73037;51.110;4.706;2024-01-27T09:51:24;21.10;;;5.97;;
83145;SDS011;73037;51.110;4.706;2024-01-27T09:53:50;18.35;;;7.00;;
83145;SDS011;73037;51.110;4.706;2024-01-27T09:56:17;17.00;;;5.50;;
83145;SDS011;73037;51.110;4.706;2024-01-27T09:58:43;16.42;;;5.20;;
83145;SDS011;73037;51.110;4.706;2024-01-27T10:01:16;13.40;;;5.40;;
83145;SDS011;73037;51.110;4.706;2024-01-27T10:03:43;14.43;;;5.65;;
83145;SDS011;73037;51.110;4.706;2024-01-27T10:06:09;11.68;;;4.85;;
83145;SDS011;73037;51.110;4.706;2024-01-27T10:08:35;13.15;;;5.18;;
83145;SDS011;73037;51.110;4.706;2024-01-27T10:11:06;16.02;;;5.10;;
83145;SDS011;73037;51.110;4.706;2024-01-27T10:13:33;14.43;;;5.10;;
83145;SDS011;73037;51.110;4.706;2024-01-27T10:16:00;12.50;;;4.45;;
83145;SDS011;73037;51.110;4.706;2024-01-27T10:18:29;14.73;;;5.13;;
83145;SDS011;73037;51.110;4.706;2024-01-27T10:20:55;13.50;;;4.95;;
83145;SDS011;73037;51.110;4.706;2024-01-27T10:23:21;11.68;;;5.40;;
83145;SDS011;73037;51.110;4.706;2024-01-27T10:25:47;13.95;;;5.03;;
83145;SDS011;73037;51.110;4.706;2024-01-27T10:28:14;13.63;;;4.63;;
83145;SDS011;73037;51.110;4.706;2024-01-27T10:30:39;16.65;;;5.07;;
83145;SDS011;73037;51.110;4.706;2024-01-27T10:33:07;15.20;;;5.05;;
83145;SDS011;73037;51.110;4.706;2024-01-27T10:35:38;16.67;;;5.32;;
83145;SDS011;73037;51.110;4.706;2024-01-27T10:38:04;17.80;;;5.45;;
83145;SDS011;73037;51.110;4.706;2024-01-27T10:40:30;18.13;;;5.70;;
83145;SDS011;73037;51.110;4.706;2024-01-27T10:43:08;16.80;;;5.28;;
83145;SDS011;73037;51.110;4.706;2024-01-27T10:45:38;14.95;;;5.10;;
83145;SDS011;73037;51.110;4.706;2024-01-27T10:48:07;15.18;;;5.00;;
83145;SDS011;73037;51.110;4.706;2024-01-27T10:50:37;13.32;;;4.97;;
83145;SDS011;73037;51.110;4.706;2024-01-27T10:53:04;16.08;;;4.72;;
83145;SDS011;73037;51.110;4.706;2024-01-27T10:55:34;15.98;;;4.63;;
83145;SDS011;73037;51.110;4.706;2024-01-27T10:58:01;15.23;;;4.32;;
83145;SDS011;73037;51.110;4.706;2024-01-27T11:00:27;15.45;;;4.90;;
83145;SDS011;73037;51.110;4.706;2024-01-27T11:02:59;14.88;;;4.88;;
83145;SDS011;73037;51.110;4.706;2024-01-27T11:05:28;14.57;;;4.18;;
83145;SDS011;73037;51.110;4.706;2024-01-27T11:07:54;12.38;;;3.72;;
83145;SDS011;73037;51.110;4.706;2024-01-27T11:10:22;10.75;;;3.88;;
83145;SDS011;73037;51.110;4.706;2024-01-27T11:17:40;9.40;;;3.00;;
83145;SDS011;73037;51.110;4.706;2024-01-27T11:20:09;10.30;;;3.22;;
83145;SDS011;73037;51.110;4.706;2024-01-27T11:22:42;14.20;;;3.88;;
83145;SDS011;73037;51.110;4.706;2024-01-27T11:27:38;14.20;;;3.58;;
83145;SDS011;73037;51.110;4.706;2024-01-27T11:30:05;11.27;;;3.30;;
83145;SDS011;73037;51.110;4.706;2024-01-27T11:32:32;12.07;;;3.70;;
83145;SDS011;73037;51.110;4.706;2024-01-27T11:35:00;10.93;;;3.00;;
83145;SDS011;73037;51.110;4.706;2024-01-27T11:37:30;10.50;;;2.70;;
83145;SDS011;73037;51.110;4.706;2024-01-27T11:40:05;7.07;;;2.22;;
83145;SDS011;73037;51.110;4.706;2024-01-27T11:42:32;7.53;;;2.47;;
83145;SDS011;73037;51.110;4.706;2024-01-27T11:44:58;8.40;;;2.17;;
83145;SDS011;73037;51.110;4.706;2024-01-27T11:47:25;8.75;;;2.20;;
83145;SDS011;73037;51.110;4.706;2024-01-27T11:49:54;8.48;;;2.22;;
83145;SDS011;73037;51.110;4.706;2024-01-27T11:52:23;9.02;;;2.15;;
83145;SDS011;73037;51.110;4.706;2024-01-27T11:54:54;8.85;;;2.00;;
83145;SDS011;73037;51.110;4.706;2024-01-27T11:57:19;11.00;;;2.15;;
83145;SDS011;73037;51.110;4.706;2024-01-27T11:59:45;11.45;;;2.72;;
83145;SDS011;73037;51.110;4.706;2024-01-27T12:02:11;9.02;;;2.47;;
83145;SDS011;73037;51.110;4.706;2024-01-27T12:04:36;4.57;;;1.85;;
83145;SDS011;73037;51.110;4.706;2024-01-27T12:07:02;7.75;;;2.10;;
83145;SDS011;73037;51.110;4.706;2024-01-27T12:09:28;7.18;;;2.30;;
83145;SDS011;73037;51.110;4.706;2024-01-27T12:11:54;7.68;;;1.73;;
83145;SDS011;73037;51.110;4.706;2024-01-27T12:14:20;9.05;;;2.63;;
83145;SDS011;73037;51.110;4.706;2024-01-27T12:16:45;6.70;;;2.35;;
83145;SDS011;73037;51.110;4.706;2024-01-27T12:19:12;8.18;;;2.20;;
83145;SDS011;73037;51.110;4.706;2024-01-27T12:21:38;7.75;;;2.38;;
83145;SDS011;73037;51.110;4.706;2024-01-27T12:24:15;4.57;;;2.00;;
83145;SDS011;73037;51.110;4.706;2024-01-27T12:26:42;6.68;;;2.53;;
83145;SDS011;73037;51.110;4.706;2024-01-27T12:29:07;7.75;;;2.30;;
83145;SDS011;73037;51.110;4.706;2024-01-27T12:31:33;6.68;;;2.15;;
83145;SDS011;73037;51.110;4.706;2024-01-27T12:33:59;9.75;;;2.30;;
83145;SDS011;73037;51.110;4.706;2024-01-27T12:36:24;15.45;;;2.72;;
83145;SDS011;73037;51.110;4.706;2024-01-27T12:39:00;7.13;;;2.38;;
83145;SDS011;73037;51.110;4.706;2024-01-27T12:41:28;7.80;;;2.28;;
83145;SDS011;73037;51.110;4.706;2024-01-27T12:43:54;12.45;;;2.70;;
83145;SDS011;73037;51.110;4.706;2024-01-27T12:46:21;9.43;;;2.40;;
83145;SDS011;73037;51.110;4.706;2024-01-27T12:48:47;10.05;;;2.53;;
83145;SDS011;73037;51.110;4.706;2024-01-27T12:51:12;6.97;;;3.10;;
83145;SDS011;73037;51.110;4.706;2024-01-27T12:53:39;10.18;;;2.20;;
83145;SDS011;73037;51.110;4.706;2024-01-27T12:56:09;11.02;;;2.72;;
83145;SDS011;73037;51.110;4.706;2024-01-27T12:58:36;10.90;;;5.43;;
83145;SDS011;73037;51.110;4.706;2024-01-27T13:01:02;9.52;;;3.67;;
83145;SDS011;73037;51.110;4.706;2024-01-27T13:03:28;10.98;;;4.57;;
83145;SDS011;73037;51.110;4.706;2024-01-27T13:05:53;7.13;;;2.63;;
83145;SDS011;73037;51.110;4.706;2024-01-27T13:08:20;10.05;;;3.80;;
83145;SDS011;73037;51.110;4.706;2024-01-27T13:10:46;8.88;;;2.78;;
83145;SDS011;73037;51.110;4.706;2024-01-27T13:13:12;7.50;;;2.75;;
83145;SDS011;73037;51.110;4.706;2024-01-27T13:15:38;11.95;;;3.40;;
83145;SDS011;73037;51.110;4.706;2024-01-27T13:18:03;9.63;;;3.58;;
83145;SDS011;73037;51.110;4.706;2024-01-27T13:20:29;11.27;;;3.50;;
83145;SDS011;73037;51.110;4.706;2024-01-27T13:22:55;10.30;;;4.63;;
83145;SDS011;73037;51.110;4.706;2024-01-27T13:25:21;8.65;;;2.83;;
83145;SDS011;73037;51.110;4.706;2024-01-27T13:27:46;9.95;;;2.67;;
83145;SDS011;73037;51.110;4.706;2024-01-27T13:30:13;7.97;;;3.50;;
83145;SDS011;73037;51.110;4.706;2024-01-27T13:32:38;7.47;;;2.80;;
83145;SDS011;73037;51.110;4.706;2024-01-27T13:35:04;11.07;;;2.72;;
83145;SDS011;73037;51.110;4.706;2024-01-27T13:37:32;7.95;;;2.92;;
83145;SDS011;73037;51.110;4.706;2024-01-27T13:40:01;9.57;;;4.10;;
83145;SDS011;73037;51.110;4.706;2024-01-27T13:42:29;10.63;;;3.53;;
83145;SDS011;73037;51.110;4.706;2024-01-27T13:44:55;6.75;;;2.50;;
83145;SDS011;73037;51.110;4.706;2024-01-27T13:47:21;10.55;;;6.35;;
83145;SDS011;73037;51.110;4.706;2024-01-27T13:49:46;9.70;;;3.60;;
83145;SDS011;73037;51.110;4.706;2024-01-27T13:52:14;8.15;;;3.28;;
83145;SDS011;73037;51.110;4.706;2024-01-27T13:54:39;11.27;;;5.32;;
83145;SDS011;73037;51.110;4.706;2024-01-27T13:57:05;11.55;;;3.22;;
83145;SDS011;73037;51.110;4.706;2024-01-27T13:59:31;8.50;;;3.10;;
83145;SDS011;73037;51.110;4.706;2024-01-27T14:01:58;8.10;;;3.22;;
83145;SDS011;73037;51.110;4.706;2024-01-27T14:04:24;11.38;;;3.53;;
83145;SDS011;73037;51.110;4.706;2024-01-27T14:06:50;11.82;;;3.40;;
83145;SDS011;73037;51.110;4.706;2024-01-27T14:09:18;10.93;;;6.32;;
83145;SDS011;73037;51.110;4.706;2024-01-27T14:11:47;15.00;;;6.60;;
83145;SDS011;73037;51.110;4.706;2024-01-27T14:14:13;10.18;;;3.55;;
83145;SDS011;73037;51.110;4.706;2024-01-27T14:16:38;9.93;;;6.25;;
83145;SDS011;73037;51.110;4.706;2024-01-27T14:19:05;10.43;;;3.53;;
83145;SDS011;73037;51.110;4.706;2024-01-27T14:21:31;5.90;;;2.50;;
83145;SDS011;73037;51.110;4.706;2024-01-27T14:23:57;6.07;;;2.92;;
83145;SDS011;73037;51.110;4.706;2024-01-27T14:26:28;8.32;;;2.92;;
83145;SDS011;73037;51.110;4.706;2024-01-27T14:28:54;5.53;;;2.70;;
83145;SDS011;73037;51.110;4.706;2024-01-27T14:31:20;12.93;;;3.08;;
83145;SDS011;73037;51.110;4.706;2024-01-27T14:33:46;7.55;;;2.20;;
83145;SDS011;73037;51.110;4.706;2024-01-27T14:36:12;10.73;;;2.88;;
83145;SDS011;73037;51.110;4.706;2024-01-27T14:38:38;8.88;;;2.72;;
83145;SDS011;73037;51.110;4.706;2024-01-27T14:41:05;9.45;;;3.10;;
83145;SDS011;73037;51.110;4.706;2024-01-27T14:43:32;7.10;;;2.50;;
83145;SDS011;73037;51.110;4.706;2024-01-27T14:45:58;6.75;;;2.22;;